createdAt,value
2018-12-14T00:02:17.676Z,101533.88
2018-12-14T00:04:43.609Z,101534.83
2018-12-14T00:07:09.514Z,101532.59
2018-12-14T00:09:35.441Z,101535.28
2018-12-14T00:12:01.380Z,101534.81
2018-12-14T00:14:27.322Z,101529.47
2018-12-14T00:16:53.252Z,101537.84
2018-12-14T00:19:19.148Z,101533.14
2018-12-14T00:21:45.066Z,101533.68
2018-12-14T00:24:10.987Z,101541.47
2018-12-14T00:26:36.923Z,101537.95
2018-12-14T00:29:02.812Z,101538.95
2018-12-14T00:31:28.824Z,101541.87
2018-12-14T00:33:54.719Z,101544.71
2018-12-14T00:36:20.695Z,101545.44
2018-12-14T00:38:46.607Z,101537.57
2018-12-14T00:41:12.512Z,101538.77
2018-12-14T00:43:38.515Z,101541.98
2018-12-14T00:46:04.413Z,101546.95
2018-12-14T00:48:30.334Z,101542.64
2018-12-14T00:50:56.246Z,101543.84
2018-12-14T00:53:22.203Z,101553.77
2018-12-14T00:55:48.105Z,101550.84
2018-12-14T00:58:14.098Z,101553.28
2018-12-14T01:00:40.541Z,101562.33
2018-12-14T01:03:06.508Z,101555.69
2018-12-14T01:05:32.442Z,101560.86
2018-12-14T01:07:58.334Z,101575.63
2018-12-14T01:10:24.259Z,101565.77
2018-12-14T01:12:50.158Z,101570.03
2018-12-14T01:15:16.258Z,101568.68
2018-12-14T01:17:42.148Z,101570.28
2018-12-14T01:20:09.199Z,101580.98
2018-12-14T01:22:35.335Z,101572.95
2018-12-14T01:25:01.348Z,101583.11
2018-12-14T01:27:27.243Z,101583.80
2018-12-14T01:29:53.165Z,101591.01
2018-12-14T01:32:19.109Z,101584.05
2018-12-14T01:34:45.051Z,101588.84
2018-12-14T01:37:10.948Z,101586.41
2018-12-14T01:39:36.880Z,101575.83
2018-12-14T01:42:04.956Z,101579.82
2018-12-14T01:44:30.725Z,101589.67
2018-12-14T01:46:56.624Z,101578.73
2018-12-14T01:49:22.528Z,101586.63
2018-12-14T01:51:48.428Z,101588.05
2018-12-14T01:54:14.348Z,101588.16
2018-12-14T01:56:40.256Z,101583.52
2018-12-14T01:59:06.176Z,101578.79
2018-12-14T02:01:32.097Z,101580.89
2018-12-14T02:03:58.046Z,101575.84
2018-12-14T02:06:23.978Z,101588.20
2018-12-14T02:08:49.884Z,101589.15
2018-12-14T02:11:15.801Z,101588.43
2018-12-14T02:13:41.700Z,101581.08
2018-12-14T02:16:07.609Z,101584.00
2018-12-14T02:18:33.556Z,101585.11
2018-12-14T02:20:59.486Z,101581.05
2018-12-14T02:23:25.387Z,101579.78
2018-12-14T02:25:51.321Z,101579.64
2018-12-14T02:28:22.126Z,101573.98
2018-12-14T02:30:48.294Z,101576.02
2018-12-14T02:33:14.178Z,101569.16
2018-12-14T02:35:40.116Z,101566.49
2018-12-14T02:38:06.123Z,101578.45
2018-12-14T02:40:32.058Z,101572.30
2018-12-14T02:42:57.954Z,101565.47
2018-12-14T02:45:23.831Z,101567.17
2018-12-14T02:47:49.750Z,101579.49
2018-12-14T02:50:15.668Z,101575.44
2018-12-14T02:52:41.601Z,101564.61
2018-12-14T02:55:07.555Z,101564.84
2018-12-14T02:57:33.518Z,101571.92
2018-12-14T02:59:59.429Z,101566.53
2018-12-14T03:02:25.364Z,101557.67
2018-12-14T03:04:51.369Z,101562.67
2018-12-14T03:07:17.287Z,101573.64
2018-12-14T03:09:43.234Z,101569.47
2018-12-14T03:12:09.213Z,101572.38
2018-12-14T03:14:35.269Z,101575.78
2018-12-14T03:17:01.314Z,101570.20
2018-12-14T03:19:27.216Z,101573.61
2018-12-14T03:21:53.137Z,101569.42
2018-12-14T03:24:19.045Z,101566.75
2018-12-14T03:26:44.986Z,101563.04
2018-12-14T03:29:10.890Z,101575.19
2018-12-14T03:31:36.822Z,101569.92
2018-12-14T03:34:02.721Z,101569.56
2018-12-14T03:36:28.641Z,101566.63
2018-12-14T03:38:54.541Z,101563.67
2018-12-14T03:41:20.478Z,101565.59
2018-12-14T03:43:46.426Z,101569.56
2018-12-14T03:46:12.319Z,101577.70
2018-12-14T03:48:38.243Z,101575.11
2018-12-14T03:51:04.150Z,101574.33
2018-12-14T03:53:30.065Z,101572.88
2018-12-14T03:55:56.050Z,101582.47
2018-12-14T03:58:21.997Z,101572.45
2018-12-14T04:00:47.920Z,101562.20
2018-12-14T04:03:13.837Z,101577.41
2018-12-14T04:05:40.048Z,101568.00
2018-12-14T04:08:05.965Z,101568.70
2018-12-14T04:10:31.892Z,101578.23
2018-12-14T04:12:57.786Z,101563.85
2018-12-14T04:15:23.714Z,101574.41
2018-12-14T04:17:49.714Z,101572.77
2018-12-14T04:20:15.636Z,101575.59
2018-12-14T04:22:41.569Z,101580.64
2018-12-14T04:25:07.507Z,101575.87
2018-12-14T04:27:33.478Z,101586.98
2018-12-14T04:29:59.388Z,101581.70
2018-12-14T04:32:25.319Z,101583.91
2018-12-14T04:34:51.286Z,101579.75
2018-12-14T04:37:17.273Z,101583.12
2018-12-14T04:39:43.187Z,101577.13
2018-12-14T04:42:09.133Z,101575.28
2018-12-14T04:44:35.125Z,101574.36
2018-12-14T04:47:01.244Z,101574.04
2018-12-14T04:49:27.609Z,101569.77
2018-12-14T04:51:53.500Z,101578.11
2018-12-14T04:54:19.477Z,101574.91
2018-12-14T04:56:45.371Z,101575.83
2018-12-14T04:59:11.391Z,101581.18
2018-12-14T05:01:37.381Z,101573.35
2018-12-14T05:04:03.376Z,101576.42
2018-12-14T05:06:29.292Z,101577.73
2018-12-14T05:08:59.592Z,101580.95
2018-12-14T05:11:25.546Z,101574.80
2018-12-14T05:13:51.570Z,101578.69
2018-12-14T05:16:17.510Z,101578.73
2018-12-14T05:18:43.424Z,101584.97
2018-12-14T05:21:09.320Z,101584.52
2018-12-14T05:23:36.271Z,101584.77
2018-12-14T05:26:02.174Z,101586.20
2018-12-14T05:28:28.107Z,101574.69
2018-12-14T05:30:54.005Z,101572.20
2018-12-14T05:33:19.945Z,101571.63
2018-12-14T05:35:45.888Z,101573.89
2018-12-14T05:38:11.788Z,101572.53
2018-12-14T05:40:37.720Z,101571.46
2018-12-14T05:43:03.619Z,101573.30
2018-12-14T05:45:29.538Z,101574.22
2018-12-14T05:47:55.536Z,101571.02
2018-12-14T05:50:21.443Z,101572.08
2018-12-14T05:52:47.340Z,101568.80
2018-12-14T05:55:13.281Z,101567.56
2018-12-14T05:57:39.203Z,101572.95
2018-12-14T06:00:07.528Z,101572.95
2018-12-14T06:02:33.431Z,101572.32
2018-12-14T06:04:59.367Z,101572.76
2018-12-14T06:07:25.307Z,101579.45
2018-12-14T06:09:51.192Z,101579.94
2018-12-14T06:12:17.114Z,101588.22
2018-12-14T06:14:43.026Z,101587.17
2018-12-14T06:17:08.959Z,101592.55
2018-12-14T06:19:34.861Z,101590.41
2018-12-14T06:22:00.804Z,101593.86
2018-12-14T06:24:26.693Z,101599.22
2018-12-14T06:26:52.633Z,101596.62
2018-12-14T06:29:25.489Z,101592.63
2018-12-14T06:31:51.421Z,101596.89
2018-12-14T06:34:17.327Z,101601.26
2018-12-14T06:36:43.289Z,101603.87
2018-12-14T06:39:09.191Z,101600.59
2018-12-14T06:41:35.339Z,101608.51
2018-12-14T06:44:01.226Z,101606.67
2018-12-14T06:46:27.115Z,101604.02
2018-12-14T06:48:53.047Z,101605.98
2018-12-14T06:51:18.988Z,101608.44
2018-12-14T06:53:51.824Z,101607.51
2018-12-14T06:56:18.003Z,101621.11
2018-12-14T06:58:43.900Z,101624.89
2018-12-14T07:01:09.789Z,101624.95
2018-12-14T07:03:35.704Z,101631.00
2018-12-14T07:06:01.619Z,101627.84
2018-12-14T07:08:27.632Z,101629.38
2018-12-14T07:10:53.532Z,101633.87
2018-12-14T07:13:21.987Z,101635.23
2018-12-14T07:15:47.409Z,101625.24
2018-12-14T07:18:13.378Z,101631.88
2018-12-14T07:20:39.612Z,101634.59
2018-12-14T07:23:05.552Z,101638.30
2018-12-14T07:25:31.468Z,101641.70
2018-12-14T07:27:57.419Z,101634.80
2018-12-14T07:30:23.310Z,101640.24
2018-12-14T07:32:49.234Z,101640.09
2018-12-14T07:35:15.164Z,101640.70
2018-12-14T07:37:41.062Z,101647.70
2018-12-14T07:40:06.985Z,101643.95
2018-12-14T07:42:32.890Z,101646.72
2018-12-14T07:44:58.870Z,101649.92
2018-12-14T07:47:24.933Z,101659.50
2018-12-14T07:49:50.863Z,101660.80
2018-12-14T07:52:16.779Z,101664.09
2018-12-14T07:54:42.713Z,101665.88
2018-12-14T07:57:15.560Z,101670.84
2018-12-14T07:59:41.485Z,101675.84
2018-12-14T08:02:07.379Z,101672.80
2018-12-14T08:04:33.623Z,101680.85
2018-12-14T08:06:59.859Z,101687.02
2018-12-14T08:09:25.913Z,101691.19
2018-12-14T08:11:51.808Z,101694.41
2018-12-14T08:14:17.769Z,101693.31
2018-12-14T08:16:43.677Z,101694.66
2018-12-14T08:19:09.592Z,101701.78
2018-12-14T08:21:35.539Z,101698.73
2018-12-14T08:24:01.450Z,101701.00
2018-12-14T08:26:27.442Z,101699.66
2018-12-14T08:28:53.389Z,101706.29
2018-12-14T08:31:19.277Z,101715.27
2018-12-14T08:33:45.193Z,101711.30
2018-12-14T08:36:11.101Z,101714.13
2018-12-14T08:38:37.048Z,101717.06
2018-12-14T08:41:02.948Z,101718.45
2018-12-14T08:43:28.877Z,101717.09
2018-12-14T08:45:54.814Z,101720.95
2018-12-14T08:48:20.956Z,101731.13
2018-12-14T08:50:47.013Z,101723.41
2018-12-14T08:53:13.349Z,101722.14
2018-12-14T08:55:39.329Z,101724.45
2018-12-14T08:58:05.353Z,101726.98
2018-12-14T09:00:31.317Z,101729.67
2018-12-14T09:02:57.325Z,101733.42
2018-12-14T09:05:23.351Z,101739.37
2018-12-14T09:07:49.243Z,101738.89
2018-12-14T09:10:15.132Z,101741.43
2018-12-14T09:12:41.389Z,101741.85
2018-12-14T09:15:07.284Z,101738.44
2018-12-14T09:17:33.282Z,101733.40
2018-12-14T09:19:59.400Z,101735.98
2018-12-14T09:22:25.328Z,101733.73
2018-12-14T09:24:51.236Z,101741.48
2018-12-14T09:27:17.166Z,101741.81
2018-12-14T09:29:43.067Z,101739.78
2018-12-14T09:32:08.997Z,101741.55
2018-12-14T09:34:35.405Z,101741.56
2018-12-14T09:37:01.332Z,101749.02
2018-12-14T09:39:27.283Z,101748.80
2018-12-14T09:41:53.213Z,101748.34
2018-12-14T09:44:19.115Z,101743.73
2018-12-14T09:46:45.052Z,101750.45
2018-12-14T09:49:10.967Z,101751.02
2018-12-14T09:51:36.904Z,101752.91
2018-12-14T09:54:02.838Z,101744.11
2018-12-14T09:56:28.986Z,101748.31
2018-12-14T09:58:54.957Z,101757.56
2018-12-14T10:01:20.865Z,101750.62
2018-12-14T10:03:54.199Z,101755.86
2018-12-14T10:06:20.094Z,101764.94
2018-12-14T10:08:46.015Z,101758.95
2018-12-14T10:11:12.157Z,101757.65
2018-12-14T10:13:38.361Z,101755.57
2018-12-14T10:16:04.587Z,101753.00
2018-12-14T10:18:30.617Z,101751.36
2018-12-14T10:20:56.558Z,101749.06
2018-12-14T10:23:22.473Z,101745.66
2018-12-14T10:25:48.446Z,101745.22
2018-12-14T10:28:14.478Z,101744.05
2018-12-14T10:30:40.393Z,101751.66
2018-12-14T10:33:06.335Z,101735.84
2018-12-14T10:35:32.241Z,101732.31
2018-12-14T10:37:58.197Z,101732.88
2018-12-14T10:40:24.080Z,101731.91
2018-12-14T10:42:50.019Z,101730.66
2018-12-14T10:45:15.906Z,101732.10
2018-12-14T10:47:41.885Z,101732.58
2018-12-14T10:50:07.789Z,101731.27
2018-12-14T10:52:33.710Z,101730.84
2018-12-14T10:54:59.663Z,101734.20
2018-12-14T10:57:25.627Z,101734.78
2018-12-14T10:59:51.562Z,101735.55
2018-12-14T11:02:17.504Z,101728.13
2018-12-14T11:04:43.447Z,101735.67
2018-12-14T11:07:09.357Z,101723.45
2018-12-14T11:09:35.305Z,101733.89
2018-12-14T11:12:01.234Z,101730.73
2018-12-14T11:14:27.170Z,101728.22
2018-12-14T11:16:53.119Z,101727.35
2018-12-14T11:19:19.039Z,101725.21
2018-12-14T11:21:44.966Z,101731.02
2018-12-14T11:24:10.876Z,101734.83
2018-12-14T11:26:36.828Z,101727.81
2018-12-14T11:29:02.720Z,101729.58
2018-12-14T11:31:28.652Z,101730.05
2018-12-14T11:33:55.612Z,101730.88
2018-12-14T11:36:21.534Z,101730.50
2018-12-14T11:38:47.472Z,101728.74
2018-12-14T11:41:18.471Z,101730.54
2018-12-14T11:43:41.316Z,101727.02
2018-12-14T11:46:07.228Z,101719.74
2018-12-14T11:48:33.158Z,101731.49
2018-12-14T11:50:59.094Z,101731.50
2018-12-14T11:53:25.005Z,101723.78
2018-12-14T11:55:51.010Z,101727.23
2018-12-14T11:58:17.000Z,101724.98
2018-12-14T12:00:43.022Z,101728.36
2018-12-14T12:03:09.032Z,101732.37
2018-12-14T12:05:34.974Z,101729.74
2018-12-14T12:08:01.226Z,101728.05
2018-12-14T12:10:27.128Z,101725.37
2018-12-14T12:12:53.072Z,101723.68
2018-12-14T12:15:19.068Z,101726.72
2018-12-14T12:17:49.424Z,101730.63
2018-12-14T12:20:13.355Z,101726.31
2018-12-14T12:22:46.322Z,101725.70
2018-12-14T12:25:12.222Z,101730.31
2018-12-14T12:27:38.174Z,101726.13
2018-12-14T12:30:07.027Z,101727.11
2018-12-14T12:32:32.966Z,101721.89
2018-12-14T12:34:58.873Z,101726.66
2018-12-14T12:37:24.844Z,101721.78
2018-12-14T12:39:50.807Z,101712.61
2018-12-14T12:42:16.745Z,101717.88
2018-12-14T12:44:42.656Z,101721.81
2018-12-14T12:47:08.613Z,101717.45
2018-12-14T12:49:34.517Z,101717.94
2018-12-14T12:52:00.444Z,101715.84
2018-12-14T12:54:26.412Z,101717.53
2018-12-14T12:56:52.418Z,101717.08
2018-12-14T12:59:18.447Z,101724.09
2018-12-14T13:01:44.481Z,101714.14
2018-12-14T13:04:10.391Z,101718.88
2018-12-14T13:06:36.318Z,101711.91
2018-12-14T13:09:04.351Z,101711.36
2018-12-14T13:11:30.260Z,101711.38
2018-12-14T13:13:56.194Z,101715.81
2018-12-14T13:16:22.113Z,101714.48
2018-12-14T13:18:48.027Z,101715.81
2018-12-14T13:21:14.093Z,101713.17
2018-12-14T13:23:40.052Z,101712.23
2018-12-14T13:26:06.134Z,101711.37
2018-12-14T13:28:32.069Z,101717.27
2018-12-14T13:30:58.019Z,101716.20
2018-12-14T13:33:24.332Z,101716.98
2018-12-14T13:35:50.510Z,101720.54
2018-12-14T13:38:16.475Z,101721.05
2018-12-14T13:40:42.507Z,101728.84
2018-12-14T13:43:08.446Z,101734.83
2018-12-14T13:45:34.494Z,101732.10
2018-12-14T13:48:00.562Z,101742.64
2018-12-14T13:50:26.477Z,101738.90
2018-12-14T13:52:52.428Z,101732.47
2018-12-14T13:55:18.375Z,101741.75
2018-12-14T13:57:45.565Z,101740.05
2018-12-14T14:00:12.038Z,101752.59
2018-12-14T14:02:37.961Z,101748.23
2018-12-14T14:05:04.144Z,101759.30
2018-12-14T14:07:30.067Z,101761.69
2018-12-14T14:09:56.023Z,101751.88
2018-12-14T14:12:21.973Z,101762.17
2018-12-14T14:14:52.969Z,101757.91
2018-12-14T14:17:15.990Z,101769.80
2018-12-14T14:19:42.287Z,101772.03
2018-12-14T14:22:08.422Z,101770.36
2018-12-14T14:24:34.424Z,101778.52
2018-12-14T14:27:00.507Z,101774.25
2018-12-14T14:29:26.443Z,101779.83
2018-12-14T14:31:52.450Z,101774.10
2018-12-14T14:34:18.365Z,101780.03
2018-12-14T14:36:44.333Z,101781.63
2018-12-14T14:39:10.260Z,101782.30
2018-12-14T14:41:36.210Z,101785.13
2018-12-14T14:44:02.741Z,101782.13
2018-12-14T14:46:30.248Z,101790.05
2018-12-14T14:48:56.221Z,101790.67
2018-12-14T14:51:22.502Z,101790.38
2018-12-14T14:53:48.518Z,101795.38
2018-12-14T14:56:14.532Z,101800.13
2018-12-14T14:58:40.528Z,101799.98
2018-12-14T15:01:06.514Z,101801.66
2018-12-14T15:03:32.752Z,101802.91
2018-12-14T15:05:58.720Z,101806.71
2018-12-14T15:08:24.948Z,101803.25
2018-12-14T15:10:50.909Z,101806.14
2018-12-14T15:13:16.900Z,101808.33
2018-12-14T15:15:42.876Z,101812.46
2018-12-14T15:18:08.873Z,101806.86
2018-12-14T15:20:34.875Z,101812.55
2018-12-14T15:23:00.875Z,101810.45
2018-12-14T15:25:26.893Z,101816.87
2018-12-14T15:27:52.863Z,101824.27
2018-12-14T15:30:18.872Z,101828.77
2018-12-14T15:32:44.873Z,101823.56
2018-12-14T15:35:10.856Z,101827.41
2018-12-14T15:37:36.918Z,101827.79
2018-12-14T15:40:04.942Z,101829.13
2018-12-14T15:42:30.944Z,101831.15
2018-12-14T15:44:56.915Z,101834.59
2018-12-14T15:47:22.922Z,101829.38
2018-12-14T15:49:48.896Z,101838.09
2018-12-14T15:52:14.902Z,101843.34
2018-12-14T15:54:40.889Z,101843.80
2018-12-14T15:57:06.929Z,101843.45
2018-12-14T15:59:32.920Z,101842.32
2018-12-14T16:01:58.935Z,101844.64
2018-12-14T16:04:24.946Z,101842.52
2018-12-14T16:06:50.971Z,101844.33
2018-12-14T16:09:16.981Z,101847.59
2018-12-14T16:11:42.983Z,101846.69
2018-12-14T16:14:09.147Z,101846.88
2018-12-14T16:16:35.249Z,101853.44
2018-12-14T16:19:01.290Z,101852.09
2018-12-14T16:21:27.386Z,101851.85
2018-12-14T16:23:53.411Z,101856.19
2018-12-14T16:26:19.532Z,101864.20
2018-12-14T16:28:52.460Z,101870.13
2018-12-14T16:31:25.549Z,101866.77
2018-12-14T16:33:51.535Z,101864.28
2018-12-14T16:36:17.516Z,101864.25
2018-12-14T16:38:43.510Z,101861.20
2018-12-14T16:41:09.460Z,101858.26
2018-12-14T16:43:35.477Z,101853.48
2018-12-14T16:46:01.444Z,101861.63
2018-12-14T16:48:27.406Z,101856.39
2018-12-14T16:50:53.405Z,101852.08
2018-12-14T16:53:19.362Z,101854.94
2018-12-14T16:55:45.370Z,101856.59
2018-12-14T16:58:11.424Z,101861.68
2018-12-14T17:00:37.510Z,101855.05
2018-12-14T17:03:03.511Z,101861.97
2018-12-14T17:05:29.505Z,101857.16
2018-12-14T17:07:55.444Z,101856.32
2018-12-14T17:10:21.447Z,101860.48
2018-12-14T17:12:47.423Z,101870.08
2018-12-14T17:15:13.422Z,101863.65
2018-12-14T17:17:39.514Z,101863.95
2018-12-14T17:20:05.519Z,101857.42
2018-12-14T17:22:31.594Z,101860.34
2018-12-14T17:24:57.593Z,101861.72
2018-12-14T17:27:23.580Z,101867.72
2018-12-14T17:29:49.564Z,101870.05
2018-12-14T17:32:15.615Z,101857.43
2018-12-14T17:34:41.619Z,101856.70
2018-12-14T17:37:07.777Z,101859.63
2018-12-14T17:39:33.748Z,101862.40
2018-12-14T17:41:59.749Z,101862.02
2018-12-14T17:44:25.739Z,101866.70
2018-12-14T17:46:52.087Z,101860.64
2018-12-14T17:49:18.049Z,101859.97
2018-12-14T17:51:44.187Z,101861.34
2018-12-14T17:54:10.264Z,101857.88
2018-12-14T17:56:36.318Z,101852.52
2018-12-14T17:59:02.311Z,101858.73
2018-12-14T18:01:28.309Z,101857.98
2018-12-14T18:03:54.315Z,101859.33
2018-12-14T18:06:20.400Z,101861.13
2018-12-14T18:08:46.497Z,101862.84
2018-12-14T18:11:12.499Z,101857.13
2018-12-14T18:13:38.505Z,101861.94
2018-12-14T18:16:04.512Z,101867.50
2018-12-14T18:18:30.581Z,101862.17
2018-12-14T18:20:56.555Z,101873.13
2018-12-14T18:23:22.627Z,101871.33
2018-12-14T18:25:48.621Z,101873.80
2018-12-14T18:28:14.593Z,101876.70
2018-12-14T18:30:41.231Z,101875.28
2018-12-14T18:33:07.373Z,101874.38
2018-12-14T18:35:33.371Z,101880.99
2018-12-14T18:37:59.335Z,101880.03
2018-12-14T18:40:25.359Z,101879.82
2018-12-14T18:42:51.318Z,101878.39
2018-12-14T18:45:17.310Z,101882.84
2018-12-14T18:47:43.384Z,101884.61
2018-12-14T18:50:09.346Z,101888.56
2018-12-14T18:52:35.338Z,101893.06
2018-12-14T18:55:01.299Z,101891.78
2018-12-14T18:57:27.334Z,101894.70
2018-12-14T18:59:53.310Z,101899.05
2018-12-14T19:02:19.327Z,101902.29
2018-12-14T19:04:45.313Z,101901.05
2018-12-14T19:07:11.411Z,101910.02
2018-12-14T19:09:37.702Z,101910.66
2018-12-14T19:12:03.737Z,101910.59
2018-12-14T19:14:29.699Z,101914.62
2018-12-14T19:16:56.477Z,101914.50
2018-12-14T19:19:22.523Z,101915.80
2018-12-14T19:21:48.504Z,101924.30
2018-12-14T19:24:18.721Z,101928.31
2018-12-14T19:26:44.967Z,101929.14
2018-12-14T19:29:10.992Z,101933.49
2018-12-14T19:31:36.995Z,101937.97
2018-12-14T19:34:03.038Z,101935.64
2018-12-14T19:36:29.299Z,101938.84
2018-12-14T19:38:55.667Z,101932.75
2018-12-14T19:41:21.638Z,101933.91
2018-12-14T19:43:47.661Z,101934.81
2018-12-14T19:46:13.635Z,101939.19
2018-12-14T19:48:39.668Z,101946.09
2018-12-14T19:51:05.688Z,101946.31
2018-12-14T19:53:31.719Z,101952.37
2018-12-14T19:55:57.750Z,101954.48
2018-12-14T19:58:23.790Z,101955.34
2018-12-14T20:00:49.796Z,101953.30
2018-12-14T20:03:15.798Z,101957.80
2018-12-14T20:05:41.914Z,101954.18
2018-12-14T20:08:07.880Z,101958.33
2018-12-14T20:10:33.897Z,101955.50
2018-12-14T20:12:59.876Z,101952.91
2018-12-14T20:15:25.946Z,101959.34
2018-12-14T20:17:51.949Z,101957.66
2018-12-14T20:20:17.978Z,101960.55
2018-12-14T20:22:44.474Z,101967.22
2018-12-14T20:25:10.562Z,101970.67
2018-12-14T20:27:36.611Z,101966.80
2018-12-14T20:30:04.054Z,101973.76
2018-12-14T20:32:30.046Z,101965.25
2018-12-14T20:34:56.384Z,101975.63
2018-12-14T20:37:22.482Z,101967.14
2018-12-14T20:39:48.491Z,101972.64
2018-12-14T20:42:14.449Z,101965.40
2018-12-14T20:44:40.482Z,101966.55
2018-12-14T20:47:06.533Z,101973.47
2018-12-14T20:49:32.496Z,101970.50
2018-12-14T20:51:58.588Z,101970.44
2018-12-14T20:54:24.552Z,101970.88
2018-12-14T20:56:51.693Z,101968.71
2018-12-14T20:59:18.109Z,101970.58
2018-12-14T21:01:44.234Z,101976.00
2018-12-14T21:04:10.207Z,101978.48
2018-12-14T21:06:36.192Z,101978.28
2018-12-14T21:09:03.541Z,101976.66
2018-12-14T21:11:29.773Z,101980.42
2018-12-14T21:13:55.792Z,101975.16
2018-12-14T21:16:25.940Z,101975.60
2018-12-14T21:18:49.875Z,101983.53
2018-12-14T21:21:15.911Z,101974.16
2018-12-14T21:23:41.919Z,101974.09
2018-12-14T21:26:07.941Z,101981.27
2018-12-14T21:28:33.900Z,101982.52
2018-12-14T21:30:59.905Z,101986.42
2018-12-14T21:33:25.884Z,101987.98
2018-12-14T21:35:51.884Z,101992.69
2018-12-14T21:38:17.891Z,101992.61
2018-12-14T21:40:43.844Z,101989.95
2018-12-14T21:43:09.861Z,101992.41
2018-12-14T21:45:35.855Z,101992.09
2018-12-14T21:48:01.873Z,101989.24
2018-12-14T21:50:27.868Z,101986.98
2018-12-14T21:52:53.859Z,101995.76
2018-12-14T21:55:19.919Z,101984.48
2018-12-14T21:57:46.476Z,101977.58
2018-12-14T22:00:12.575Z,101977.38
2018-12-14T22:02:38.639Z,101975.56
2018-12-14T22:05:05.916Z,101975.23
2018-12-14T22:07:31.935Z,101967.94
2018-12-14T22:09:57.916Z,101967.48
2018-12-14T22:12:23.947Z,101966.59
2018-12-14T22:14:49.918Z,101962.26
2018-12-14T22:17:15.926Z,101973.92
2018-12-14T22:19:41.922Z,101965.78
2018-12-14T22:22:07.915Z,101967.77
2018-12-14T22:24:34.040Z,101963.50
2018-12-14T22:27:00.066Z,101964.64
2018-12-14T22:29:26.156Z,101966.35
2018-12-14T22:31:52.116Z,101962.89
2018-12-14T22:34:18.135Z,101961.25
2018-12-14T22:36:44.139Z,101961.05
2018-12-14T22:39:17.391Z,101957.59
2018-12-14T22:41:43.382Z,101959.77
2018-12-14T22:44:09.389Z,101958.72
2018-12-14T22:46:35.355Z,101963.28
2018-12-14T22:49:01.359Z,101965.30
2018-12-14T22:51:27.334Z,101963.62
2018-12-14T22:53:53.351Z,101966.31
2018-12-14T22:56:19.558Z,101964.46
2018-12-14T22:58:45.553Z,101959.36
2018-12-14T23:01:11.523Z,101958.48
2018-12-14T23:03:37.542Z,101959.61
2018-12-14T23:06:03.510Z,101961.49
2018-12-14T23:08:29.522Z,101954.52
2018-12-14T23:10:55.524Z,101958.84
2018-12-14T23:13:21.517Z,101964.95
2018-12-14T23:15:47.482Z,101963.68
2018-12-14T23:18:13.466Z,101957.31
2018-12-14T23:20:39.507Z,101955.46
2018-12-14T23:23:05.516Z,101961.02
2018-12-14T23:25:31.494Z,101958.95
2018-12-14T23:27:57.492Z,101969.77
2018-12-14T23:30:23.502Z,101970.22
2018-12-14T23:32:49.505Z,101966.81
2018-12-14T23:35:15.450Z,101968.81
2018-12-14T23:37:41.520Z,101963.97
2018-12-14T23:40:07.482Z,101973.34
2018-12-14T23:42:33.455Z,101961.58
2018-12-14T23:44:59.476Z,101968.11
2018-12-14T23:47:25.426Z,101973.31
2018-12-14T23:49:51.454Z,101973.78
2018-12-14T23:52:17.415Z,101968.05
2018-12-14T23:54:43.434Z,101971.78
2018-12-14T23:57:12.214Z,101966.63
2018-12-14T23:59:37.436Z,101965.77
